createdAt,value
2023-02-23T00:01:53.207Z,94668.28
2023-02-23T00:04:20.105Z,94675.16
2023-02-23T00:06:47.089Z,94670.19
2023-02-23T00:09:22.884Z,94670.31
2023-02-23T00:11:55.228Z,94665.59
2023-02-23T00:14:27.351Z,94668.53
2023-02-23T00:16:55.697Z,94669.91
2023-02-23T00:19:24.656Z,94670.31
2023-02-23T00:21:52.061Z,94673.56
2023-02-23T00:24:22.004Z,94672.47
2023-02-23T00:26:51.466Z,94671.78
2023-02-23T00:29:22.815Z,94671.78
2023-02-23T00:31:51.183Z,94666.78
2023-02-23T00:34:23.759Z,94669.63
2023-02-23T00:36:55.473Z,94670.19
2023-02-23T00:39:29.173Z,94673.66
2023-02-23T00:41:56.647Z,94671.38
2023-02-23T00:44:24.601Z,94674.09
2023-02-23T00:46:52.423Z,94673.75
2023-02-23T00:49:21.105Z,94665.34
2023-02-23T00:51:48.119Z,94677.91
2023-02-23T00:54:17.195Z,94674.59
2023-02-23T00:56:45.563Z,94675.84
2023-02-23T00:59:13.389Z,94667.59
2023-02-23T01:01:44.443Z,94670.44
2023-02-23T01:04:13.215Z,94671.63
2023-02-23T01:06:41.421Z,94671.78
2023-02-23T01:09:16.228Z,94671.63
2023-02-23T01:11:46.561Z,94663.31
2023-02-23T01:14:14.779Z,94670.19
2023-02-23T01:16:41.313Z,94659.38
2023-02-23T01:19:08.100Z,94656.53
2023-02-23T01:21:37.908Z,94660.59
2023-02-23T01:24:05.776Z,94658.72
2023-02-23T01:26:38.032Z,94661.28
2023-02-23T01:29:14.266Z,94668.00
2023-02-23T01:31:44.659Z,94674.63
2023-02-23T01:34:12.919Z,94674.59
2023-02-23T01:36:41.072Z,94679.03
2023-02-23T01:39:12.277Z,94681.84
2023-02-23T01:41:43.640Z,94675.25
2023-02-23T01:44:13.462Z,94673.16
2023-02-23T01:46:43.645Z,94667.63
2023-02-23T01:49:17.895Z,94667.09
2023-02-23T01:52:02.058Z,94666.44
2023-02-23T01:54:33.550Z,94663.19
2023-02-23T01:57:02.764Z,94662.50
2023-02-23T01:59:35.090Z,94656.84
2023-02-23T02:02:05.096Z,94657.09
2023-02-23T02:04:44.408Z,94658.03
2023-02-23T02:07:17.667Z,94653.97
2023-02-23T02:10:08.593Z,94649.25
2023-02-23T02:12:35.472Z,94647.88
2023-02-23T02:15:05.506Z,94647.19
2023-02-23T02:17:39.072Z,94648.84
2023-02-23T02:20:26.587Z,94655.19
2023-02-23T02:23:03.124Z,94649.94
2023-02-23T02:25:49.933Z,94648.03
2023-02-23T02:28:30.091Z,94642.66
2023-02-23T02:31:06.678Z,94638.91
2023-02-23T02:33:58.247Z,94644.03
2023-02-23T02:36:50.905Z,94641.66
2023-02-23T02:39:38.374Z,94637.78
2023-02-23T02:42:22.858Z,94635.88
2023-02-23T02:45:08.134Z,94636.03
2023-02-23T02:47:43.061Z,94632.66
2023-02-23T02:50:21.374Z,94634.94
2023-02-23T02:53:04.007Z,94637.50
2023-02-23T02:55:34.638Z,94640.72
2023-02-23T02:58:07.831Z,94640.09
2023-02-23T03:00:59.949Z,94640.88
2023-02-23T03:04:04.764Z,94637.16
2023-02-23T03:07:08.461Z,94635.75
2023-02-23T03:10:16.665Z,94633.34
2023-02-23T03:13:21.092Z,94634.16
2023-02-23T03:16:38.459Z,94636.53
2023-02-23T03:19:34.545Z,94639.69
2023-02-23T03:22:32.112Z,94630.66
2023-02-23T03:25:24.513Z,94638.72
2023-02-23T03:28:12.163Z,94634.03
2023-02-23T03:31:18.177Z,94636.72
2023-02-23T03:34:16.028Z,94632.47
2023-02-23T03:37:09.202Z,94633.91
2023-02-23T03:40:01.463Z,94639.03
2023-02-23T03:42:52.931Z,94640.59
2023-02-23T03:45:42.214Z,94638.66
2023-02-23T03:48:30.227Z,94638.41
2023-02-23T03:51:19.821Z,94636.88
2023-02-23T03:54:18.169Z,94636.16
2023-02-23T03:57:07.591Z,94638.13
2023-02-23T03:59:58.501Z,94644.06
2023-02-23T04:02:45.485Z,94644.13
2023-02-23T04:05:36.695Z,94645.97
2023-02-23T04:08:25.059Z,94643.34
2023-02-23T04:11:19.723Z,94643.28
2023-02-23T04:13:52.139Z,94638.47
2023-02-23T04:16:19.841Z,94641.22
2023-02-23T04:18:46.444Z,94645.66
2023-02-23T04:21:13.390Z,94647.75
2023-02-23T04:23:42.387Z,94646.84
2023-02-23T04:26:08.978Z,94652.50
2023-02-23T04:28:35.541Z,94645.38
2023-02-23T04:31:02.590Z,94640.91
2023-02-23T04:33:29.216Z,94647.31
2023-02-23T04:35:56.413Z,94646.53
2023-02-23T04:38:23.411Z,94641.88
2023-02-23T04:40:50.163Z,94643.75
2023-02-23T04:43:20.090Z,94641.44
2023-02-23T04:45:46.771Z,94642.44
2023-02-23T04:48:13.472Z,94644.91
2023-02-23T04:50:40.136Z,94650.31
2023-02-23T04:53:07.017Z,94646.03
2023-02-23T04:55:34.020Z,94646.34
2023-02-23T04:58:02.076Z,94642.47
2023-02-23T05:00:29.627Z,94649.34
2023-02-23T05:02:57.237Z,94646.81
2023-02-23T05:05:23.862Z,94645.25
2023-02-23T05:07:50.690Z,94651.03
2023-02-23T05:10:17.416Z,94651.72
2023-02-23T05:12:44.160Z,94648.22
2023-02-23T05:15:11.172Z,94645.66
2023-02-23T05:17:42.056Z,94647.28
2023-02-23T05:20:13.053Z,94645.31
2023-02-23T05:22:39.883Z,94636.28
2023-02-23T05:25:08.732Z,94642.63
2023-02-23T05:27:37.081Z,94644.91
2023-02-23T05:30:07.342Z,94642.63
2023-02-23T05:32:34.658Z,94641.53
2023-02-23T05:35:02.601Z,94644.13
2023-02-23T05:37:29.424Z,94651.75
2023-02-23T05:39:55.941Z,94645.78
2023-02-23T05:42:22.600Z,94656.03
2023-02-23T05:44:49.250Z,94652.28
2023-02-23T05:47:16.028Z,94652.00
2023-02-23T05:49:42.986Z,94653.34
2023-02-23T05:52:09.755Z,94656.47
2023-02-23T05:54:36.411Z,94652.59
2023-02-23T05:57:03.206Z,94661.78
2023-02-23T05:59:29.845Z,94662.47
2023-02-23T06:01:56.480Z,94656.78
2023-02-23T06:04:24.160Z,94652.63
2023-02-23T06:06:50.973Z,94661.94
2023-02-23T06:09:17.646Z,94661.78
2023-02-23T06:11:44.631Z,94664.63
2023-02-23T06:14:11.414Z,94653.81
2023-02-23T06:16:38.337Z,94665.56
2023-02-23T06:19:05.338Z,94668.25
2023-02-23T06:21:32.651Z,94676.88
2023-02-23T06:24:00.854Z,94675.81
2023-02-23T06:26:27.688Z,94680.41
2023-02-23T06:28:54.558Z,94678.19
2023-02-23T06:31:21.939Z,94682.03
2023-02-23T06:33:48.982Z,94674.84
2023-02-23T06:36:15.744Z,94688.47
2023-02-23T06:38:42.475Z,94682.22
2023-02-23T06:41:10.475Z,94689.47
2023-02-23T06:43:37.167Z,94690.41
2023-02-23T06:46:04.672Z,94689.34
2023-02-23T06:48:31.808Z,94696.63
2023-02-23T06:51:00.137Z,94698.81
2023-02-23T06:53:27.071Z,94699.50
2023-02-23T06:55:53.799Z,94697.25
2023-02-23T06:58:20.514Z,94696.59
2023-02-23T07:00:47.461Z,94699.28
2023-02-23T07:03:14.001Z,94695.66
2023-02-23T07:05:41.087Z,94699.69
2023-02-23T07:08:07.929Z,94705.06
2023-02-23T07:10:35.074Z,94699.16
2023-02-23T07:13:01.859Z,94707.13
2023-02-23T07:15:28.550Z,94709.03
2023-02-23T07:17:55.388Z,94708.84
2023-02-23T07:20:22.247Z,94713.19
2023-02-23T07:22:48.962Z,94709.00
2023-02-23T07:25:15.646Z,94709.81
2023-02-23T07:27:45.376Z,94707.78
2023-02-23T07:30:12.675Z,94715.16
2023-02-23T07:32:39.242Z,94706.31
2023-02-23T07:35:06.647Z,94715.47
2023-02-23T07:37:33.539Z,94710.13
2023-02-23T07:40:01.268Z,94712.81
2023-02-23T07:42:28.527Z,94705.94
2023-02-23T07:44:55.070Z,94707.81
2023-02-23T07:47:23.048Z,94710.53
2023-02-23T07:49:49.785Z,94716.06
2023-02-23T07:52:20.033Z,94718.22
2023-02-23T07:54:46.691Z,94719.00
2023-02-23T07:57:13.454Z,94713.50
2023-02-23T07:59:40.287Z,94716.31
2023-02-23T08:02:07.338Z,94720.78
2023-02-23T08:04:34.239Z,94716.03
2023-02-23T08:07:00.829Z,94717.09
2023-02-23T08:09:27.457Z,94717.22
2023-02-23T08:11:54.009Z,94713.56
2023-02-23T08:14:24.094Z,94715.31
2023-02-23T08:16:51.757Z,94718.69
2023-02-23T08:19:18.753Z,94720.16
2023-02-23T08:21:45.329Z,94718.66
2023-02-23T08:24:12.055Z,94719.44
2023-02-23T08:26:38.692Z,94715.69
2023-02-23T08:29:05.408Z,94714.06
2023-02-23T08:31:32.389Z,94712.44
2023-02-23T08:33:59.093Z,94713.44
2023-02-23T08:36:26.065Z,94717.63
2023-02-23T08:38:54.507Z,94717.63
2023-02-23T08:41:21.803Z,94725.38
2023-02-23T08:43:48.869Z,94723.63
2023-02-23T08:46:18.616Z,94725.63
2023-02-23T08:48:46.683Z,94725.78
2023-02-23T08:51:14.662Z,94721.84
2023-02-23T08:53:41.422Z,94720.09
2023-02-23T08:56:08.477Z,94720.94
2023-02-23T08:58:36.267Z,94733.75
2023-02-23T09:01:03.805Z,94731.44
2023-02-23T09:03:31.035Z,94722.16
2023-02-23T09:06:04.854Z,94723.06
2023-02-23T09:08:34.452Z,94721.19
2023-02-23T09:11:01.186Z,94724.56
2023-02-23T09:13:27.942Z,94717.25
2023-02-23T09:15:55.130Z,94715.75
2023-02-23T09:18:24.135Z,94722.91
2023-02-23T09:20:51.464Z,94723.72
2023-02-23T09:23:18.147Z,94724.25
2023-02-23T09:25:45.938Z,94715.50
2023-02-23T09:28:15.114Z,94718.72
2023-02-23T09:30:43.356Z,94725.19
2023-02-23T09:33:10.086Z,94731.38
2023-02-23T09:35:37.442Z,94727.31
2023-02-23T09:38:06.634Z,94730.38
2023-02-23T09:40:55.323Z,94724.69
2023-02-23T09:43:50.927Z,94725.88
2023-02-23T09:46:28.581Z,94724.50
2023-02-23T09:48:59.148Z,94725.50
2023-02-23T09:51:26.576Z,94735.44
2023-02-23T09:53:59.550Z,94740.94
2023-02-23T09:56:28.830Z,94737.09
2023-02-23T09:58:55.819Z,94740.13
2023-02-23T10:01:41.149Z,94736.53
2023-02-23T10:04:19.880Z,94741.97
2023-02-23T10:06:54.824Z,94738.75
2023-02-23T10:09:48.954Z,94744.72
2023-02-23T10:12:34.055Z,94740.75
2023-02-23T10:15:14.243Z,94739.94
2023-02-23T10:18:03.558Z,94737.03
2023-02-23T10:20:39.434Z,94744.75
2023-02-23T10:23:13.169Z,94748.50
2023-02-23T10:25:54.341Z,94740.63
2023-02-23T10:28:22.222Z,94734.72
2023-02-23T10:30:50.476Z,94739.88
2023-02-23T10:33:41.487Z,94737.84
2023-02-23T10:36:24.280Z,94737.47
2023-02-23T10:38:50.851Z,94727.09
2023-02-23T10:41:17.866Z,94728.31
2023-02-23T10:44:07.901Z,94729.09
2023-02-23T10:46:44.187Z,94737.06
2023-02-23T10:49:18.836Z,94727.88
2023-02-23T10:51:45.871Z,94732.25
2023-02-23T10:54:44.646Z,94727.59
2023-02-23T10:57:25.468Z,94728.03
2023-02-23T11:00:20.327Z,94726.88
2023-02-23T11:02:48.213Z,94728.84
2023-02-23T11:05:28.913Z,94729.00
2023-02-23T11:08:19.846Z,94724.50
2023-02-23T11:11:15.818Z,94724.16
2023-02-23T11:13:46.667Z,94720.91
2023-02-23T11:16:19.585Z,94720.28
2023-02-23T11:19:07.767Z,94724.09
2023-02-23T11:21:38.823Z,94718.88
2023-02-23T11:24:24.649Z,94715.50
2023-02-23T11:26:54.386Z,94714.72
2023-02-23T11:29:40.526Z,94710.88
2023-02-23T11:32:19.142Z,94711.72
2023-02-23T11:34:49.222Z,94706.03
2023-02-23T11:37:23.327Z,94699.06
2023-02-23T11:40:01.287Z,94699.84
2023-02-23T11:42:33.134Z,94702.47
2023-02-23T11:45:04.560Z,94704.03
2023-02-23T11:47:32.862Z,94694.94
2023-02-23T11:49:59.738Z,94686.38
2023-02-23T11:52:28.388Z,94694.53
2023-02-23T11:55:00.481Z,94692.06
2023-02-23T11:57:32.001Z,94683.81
2023-02-23T11:59:59.924Z,94680.81
2023-02-23T12:02:31.896Z,94682.00
2023-02-23T12:05:17.196Z,94673.59
2023-02-23T12:07:59.723Z,94670.59
2023-02-23T12:10:51.994Z,94680.09
2023-02-23T12:13:37.844Z,94676.09
2023-02-23T12:16:08.618Z,94668.53
2023-02-23T12:18:44.437Z,94672.75
2023-02-23T12:21:40.355Z,94667.88
2023-02-23T12:24:23.081Z,94667.44
2023-02-23T12:27:13.001Z,94664.16
2023-02-23T12:30:09.777Z,94664.47
2023-02-23T12:32:49.140Z,94659.53
2023-02-23T12:35:18.877Z,94652.31
2023-02-23T12:37:51.275Z,94663.75
2023-02-23T12:40:24.705Z,94659.88
2023-02-23T12:43:19.506Z,94660.00
2023-02-23T12:45:52.817Z,94655.34
2023-02-23T12:48:56.335Z,94653.38
2023-02-23T12:51:33.057Z,94655.78
2023-02-23T12:53:59.780Z,94651.31
2023-02-23T12:56:43.839Z,94656.88
2023-02-23T12:59:26.545Z,94656.63
2023-02-23T13:02:12.118Z,94653.03
2023-02-23T13:04:44.765Z,94653.19
2023-02-23T13:07:21.612Z,94648.06
2023-02-23T13:09:57.324Z,94644.13
2023-02-23T13:12:50.385Z,94635.41
2023-02-23T13:15:47.811Z,94632.22
2023-02-23T13:18:27.633Z,94634.56
2023-02-23T13:21:21.924Z,94637.72
2023-02-23T13:24:01.375Z,94633.34
2023-02-23T13:26:30.860Z,94636.84
2023-02-23T13:29:09.364Z,94645.03
2023-02-23T13:31:38.532Z,94634.88
2023-02-23T13:34:11.638Z,94637.59
2023-02-23T13:36:40.691Z,94624.63
2023-02-23T13:39:45.317Z,94628.44
2023-02-23T13:42:58.732Z,94629.69
2023-02-23T13:45:32.534Z,94622.94
2023-02-23T13:48:04.731Z,94620.81
2023-02-23T13:50:42.696Z,94622.91
2023-02-23T13:53:36.722Z,94618.75
2023-02-23T13:56:08.440Z,94617.31
2023-02-23T13:58:35.883Z,94615.56
2023-02-23T14:01:18.644Z,94615.97
2023-02-23T14:03:55.595Z,94617.22
2023-02-23T14:06:26.358Z,94615.72
2023-02-23T14:09:00.967Z,94620.19
2023-02-23T14:11:34.981Z,94619.66
2023-02-23T14:14:03.456Z,94621.00
2023-02-23T14:16:30.687Z,94616.41
2023-02-23T14:19:12.872Z,94610.03
2023-02-23T14:21:57.234Z,94618.00
2023-02-23T14:24:27.496Z,94610.56
2023-02-23T14:27:39.731Z,94616.63
2023-02-23T14:30:10.679Z,94608.16
2023-02-23T14:32:46.215Z,94609.78
2023-02-23T14:35:34.587Z,94608.22
2023-02-23T14:38:10.857Z,94611.94
2023-02-23T14:40:43.133Z,94606.25
2023-02-23T14:43:31.805Z,94602.13
2023-02-23T14:46:01.009Z,94608.88
2023-02-23T14:48:27.732Z,94605.50
2023-02-23T14:51:16.412Z,94607.22
2023-02-23T14:53:44.120Z,94603.09
2023-02-23T14:56:26.194Z,94610.28
2023-02-23T14:58:58.773Z,94611.38
2023-02-23T15:01:41.898Z,94606.72
2023-02-23T15:04:14.223Z,94607.91
2023-02-23T15:06:42.489Z,94602.22
2023-02-23T15:09:17.956Z,94607.22
2023-02-23T15:11:48.602Z,94605.97
2023-02-23T15:14:27.658Z,94608.53
2023-02-23T15:16:56.739Z,94594.66
2023-02-23T15:19:28.577Z,94601.13
2023-02-23T15:21:57.585Z,94599.56
2023-02-23T15:24:44.722Z,94594.22
2023-02-23T15:27:24.746Z,94594.88
2023-02-23T15:29:51.548Z,94594.72
2023-02-23T15:32:26.509Z,94594.63
2023-02-23T15:34:56.048Z,94601.78
2023-02-23T15:37:28.919Z,94599.50
2023-02-23T15:40:05.963Z,94595.47
2023-02-23T15:42:43.000Z,94592.63
2023-02-23T15:45:40.339Z,94593.41
2023-02-23T15:48:18.249Z,94593.38
2023-02-23T15:50:50.403Z,94599.16
2023-02-23T15:53:26.437Z,94598.25
2023-02-23T15:55:56.113Z,94598.88
2023-02-23T15:58:27.941Z,94600.59
2023-02-23T16:01:05.943Z,94596.78
2023-02-23T16:03:38.468Z,94599.41
2023-02-23T16:06:08.195Z,94594.59
2023-02-23T16:08:36.890Z,94594.22
2023-02-23T16:11:15.164Z,94603.25
2023-02-23T16:13:46.077Z,94595.84
2023-02-23T16:16:20.505Z,94591.03
2023-02-23T16:18:53.804Z,94587.81
2023-02-23T16:21:24.618Z,94587.31
2023-02-23T16:23:54.977Z,94588.00
2023-02-23T16:26:31.496Z,94595.31
2023-02-23T16:29:00.600Z,94591.38
2023-02-23T16:31:48.846Z,94591.69
2023-02-23T16:34:49.303Z,94597.94
2023-02-23T16:37:19.056Z,94599.75
2023-02-23T16:39:45.897Z,94596.94
2023-02-23T16:42:34.651Z,94594.09
2023-02-23T16:45:02.107Z,94599.19
2023-02-23T16:47:42.452Z,94595.81
2023-02-23T16:50:21.849Z,94592.69
2023-02-23T16:52:54.135Z,94597.91
2023-02-23T16:55:26.524Z,94594.63
2023-02-23T16:57:56.827Z,94600.84
2023-02-23T17:00:29.724Z,94604.94
2023-02-23T17:02:58.181Z,94610.88
2023-02-23T17:05:25.021Z,94605.28
2023-02-23T17:07:52.637Z,94605.16
2023-02-23T17:10:26.089Z,94600.47
2023-02-23T17:13:09.942Z,94604.56
2023-02-23T17:15:42.017Z,94603.00
2023-02-23T17:18:08.617Z,94606.81
2023-02-23T17:20:35.203Z,94611.06
2023-02-23T17:23:03.839Z,94615.75
2023-02-23T17:25:30.546Z,94618.28
2023-02-23T17:27:58.631Z,94621.81
2023-02-23T17:30:26.405Z,94621.69
2023-02-23T17:32:56.091Z,94619.16
2023-02-23T17:35:23.312Z,94622.66
2023-02-23T17:37:50.156Z,94628.34
2023-02-23T17:40:26.149Z,94621.84
2023-02-23T17:42:53.496Z,94618.88
2023-02-23T17:45:20.153Z,94621.44
2023-02-23T17:47:47.256Z,94623.06
2023-02-23T17:50:14.068Z,94627.13
2023-02-23T17:52:40.901Z,94618.88
2023-02-23T17:55:09.396Z,94621.97
2023-02-23T17:57:36.100Z,94623.56
2023-02-23T18:00:03.861Z,94619.66
2023-02-23T18:02:40.440Z,94617.00
2023-02-23T18:05:08.475Z,94625.53
2023-02-23T18:07:35.669Z,94625.09
2023-02-23T18:10:03.130Z,94618.09
2023-02-23T18:12:30.001Z,94615.00
2023-02-23T18:14:57.424Z,94616.47
2023-02-23T18:17:24.397Z,94628.06
2023-02-23T18:19:51.292Z,94621.31
2023-02-23T18:22:18.549Z,94625.31
2023-02-23T18:24:45.545Z,94626.81
2023-02-23T18:27:12.397Z,94625.84
2023-02-23T18:29:39.181Z,94625.84
2023-02-23T18:32:08.160Z,94629.13
2023-02-23T18:34:35.322Z,94619.00
2023-02-23T18:37:03.530Z,94624.09
2023-02-23T18:39:33.210Z,94628.13
2023-02-23T18:42:00.686Z,94618.94
2023-02-23T18:44:27.533Z,94620.50
2023-02-23T18:46:54.990Z,94621.16
2023-02-23T18:49:24.138Z,94625.19
2023-02-23T18:51:51.627Z,94623.31
2023-02-23T18:54:18.770Z,94621.41
2023-02-23T18:56:47.210Z,94624.19
2023-02-23T18:59:14.840Z,94627.22
2023-02-23T19:01:45.175Z,94628.47
2023-02-23T19:04:13.038Z,94632.59
2023-02-23T19:06:43.553Z,94626.81
2023-02-23T19:09:12.661Z,94632.91
2023-02-23T19:11:40.904Z,94638.16
2023-02-23T19:14:16.025Z,94629.69
2023-02-23T19:16:44.260Z,94634.19
2023-02-23T19:19:11.127Z,94632.28
2023-02-23T19:21:38.193Z,94638.09
2023-02-23T19:24:06.223Z,94628.53
2023-02-23T19:26:38.799Z,94619.91
2023-02-23T19:29:05.978Z,94629.44
2023-02-23T19:31:32.917Z,94635.34
2023-02-23T19:34:03.274Z,94630.06
2023-02-23T19:36:31.733Z,94629.63
2023-02-23T19:39:06.035Z,94631.16
2023-02-23T19:41:34.441Z,94640.47
2023-02-23T19:44:01.604Z,94637.56
2023-02-23T19:46:28.900Z,94636.31
2023-02-23T19:48:56.229Z,94636.78
2023-02-23T19:51:23.936Z,94639.09
2023-02-23T19:53:54.708Z,94635.38
2023-02-23T19:56:23.050Z,94638.38
2023-02-23T19:58:49.774Z,94637.91
2023-02-23T20:01:19.297Z,94637.84
2023-02-23T20:03:55.115Z,94636.75
2023-02-23T20:06:24.328Z,94636.13
2023-02-23T20:08:52.504Z,94641.31
2023-02-23T20:11:20.048Z,94635.28
2023-02-23T20:13:46.795Z,94634.41
2023-02-23T20:16:14.625Z,94627.28
2023-02-23T20:18:42.415Z,94629.47
2023-02-23T20:21:14.381Z,94629.13
2023-02-23T20:23:42.654Z,94626.97
2023-02-23T20:26:13.416Z,94618.25
2023-02-23T20:28:40.857Z,94624.06
2023-02-23T20:31:15.837Z,94627.25
2023-02-23T20:33:42.777Z,94631.91
2023-02-23T20:36:12.088Z,94619.06
2023-02-23T20:38:39.140Z,94624.03
2023-02-23T20:41:06.396Z,94623.44
2023-02-23T20:43:33.067Z,94621.81
2023-02-23T20:46:00.900Z,94626.13
2023-02-23T20:48:28.888Z,94614.38
2023-02-23T20:50:56.405Z,94615.59
2023-02-23T20:53:25.298Z,94625.63
2023-02-23T20:55:53.292Z,94617.63
2023-02-23T20:58:25.135Z,94622.56
2023-02-23T21:00:57.146Z,94622.41
2023-02-23T21:03:25.116Z,94627.66
2023-02-23T21:05:52.270Z,94619.91
2023-02-23T21:08:20.006Z,94618.44
2023-02-23T21:10:48.701Z,94618.69
2023-02-23T21:13:16.135Z,94617.91
2023-02-23T21:15:44.353Z,94610.94
2023-02-23T21:18:11.559Z,94608.75
2023-02-23T21:20:40.010Z,94612.34
2023-02-23T21:23:06.843Z,94607.94
2023-02-23T21:25:33.703Z,94607.03
2023-02-23T21:28:02.096Z,94604.47
2023-02-23T21:30:29.465Z,94600.53
2023-02-23T21:32:57.472Z,94603.47
2023-02-23T21:35:24.582Z,94605.69
2023-02-23T21:37:51.903Z,94604.41
2023-02-23T21:40:22.214Z,94606.84
2023-02-23T21:42:50.856Z,94602.66
2023-02-23T21:45:18.956Z,94609.50
2023-02-23T21:47:46.649Z,94608.59
2023-02-23T21:50:16.694Z,94608.78
2023-02-23T21:52:46.734Z,94602.44
2023-02-23T21:55:21.558Z,94605.22
2023-02-23T21:57:49.386Z,94601.28
2023-02-23T22:00:16.403Z,94596.16
2023-02-23T22:02:46.248Z,94598.03
2023-02-23T22:05:15.388Z,94598.47
2023-02-23T22:07:48.464Z,94601.34
2023-02-23T22:10:19.930Z,94588.03
2023-02-23T22:12:46.589Z,94586.88
2023-02-23T22:15:15.757Z,94593.56
2023-02-23T22:17:43.915Z,94590.41
2023-02-23T22:20:11.516Z,94593.28
2023-02-23T22:22:38.073Z,94586.34
2023-02-23T22:25:07.223Z,94583.47
2023-02-23T22:27:33.922Z,94578.97
2023-02-23T22:30:01.764Z,94580.00
2023-02-23T22:32:33.248Z,94578.63
2023-02-23T22:35:01.146Z,94575.81
2023-02-23T22:37:32.068Z,94576.25
2023-02-23T22:40:01.471Z,94576.50
2023-02-23T22:42:35.296Z,94569.00
2023-02-23T22:45:04.737Z,94570.75
2023-02-23T22:47:33.865Z,94561.16
2023-02-23T22:50:00.567Z,94558.97
2023-02-23T22:52:29.804Z,94556.41
2023-02-23T22:54:56.613Z,94559.28
2023-02-23T22:57:23.512Z,94565.41
2023-02-23T23:00:00.103Z,94559.25
2023-02-23T23:02:32.262Z,94567.88
2023-02-23T23:05:02.405Z,94567.38
2023-02-23T23:07:31.090Z,94568.31
2023-02-23T23:09:58.593Z,94563.53
2023-02-23T23:12:27.825Z,94560.56
2023-02-23T23:15:01.378Z,94557.88
2023-02-23T23:17:29.691Z,94547.97
2023-02-23T23:19:57.587Z,94554.34
2023-02-23T23:22:25.204Z,94548.34
2023-02-23T23:24:52.783Z,94549.50
2023-02-23T23:27:20.594Z,94540.94
2023-02-23T23:29:48.652Z,94536.31
2023-02-23T23:32:17.534Z,94540.19
2023-02-23T23:34:48.849Z,94536.69
2023-02-23T23:37:18.032Z,94532.97
2023-02-23T23:39:45.245Z,94533.16
2023-02-23T23:42:12.033Z,94524.94
2023-02-23T23:44:39.312Z,94531.09
2023-02-23T23:47:06.377Z,94535.56
2023-02-23T23:49:38.318Z,94531.53
2023-02-23T23:52:05.530Z,94532.69
2023-02-23T23:54:38.633Z,94525.22
2023-02-23T23:57:06.371Z,94529.56
2023-02-23T23:59:34.804Z,94522.47
